Time;durP1;ratioP1;P1;durP2;ratioP2;P2;SDS_P1;SDS_P2;PMS_P1;PMS_P2;Temp;Humidity;BMP_temperature;BMP_pressure;BME280_temperature;BME280_humidity;BME280_pressure;Samples;Min_cycle;Max_cycle;Signal;HPM_P1;HPM_P2
2021/12/07 00:00:31;;;;;;;;;7.25;1.75;;;;;7.01;100.00;100922.28;5060928;28;45249;-61
2021/12/07 00:02:56;;;;;;;;;1.25;1.25;;;;;6.99;99.27;100929.19;5060428;28;45289;-61
2021/12/07 00:05:22;;;;;;;;;5.50;2.75;;;;;6.94;100.00;100937.84;5060507;28;45221;-61
2021/12/07 00:07:48;;;;;;;;;9.50;3.00;;;;;6.98;99.69;100958.47;5060252;28;45401;-61
2021/12/07 00:10:15;;;;;;;;;5.50;1.00;;;;;6.99;100.00;100956.75;5060782;28;45310;-61
2021/12/07 00:12:43;;;;;;;;;5.50;3.00;;;;;6.98;100.00;100947.28;5060603;28;45495;-61
2021/12/07 00:15:11;;;;;;;;;3.00;2.00;;;;;6.97;100.00;100950.75;5047810;28;46977;-61
2021/12/07 00:17:37;;;;;;;;;7.75;1.25;;;;;6.96;100.00;100949.88;5060448;28;45234;-60
2021/12/07 00:20:12;;;;;;;;;3.00;3.00;;;;;6.97;100.00;100938.69;5060156;28;45355;-60
2021/12/07 00:22:39;;;;;;;;;9.00;2.00;;;;;7.00;100.00;100938.63;5056158;28;45358;-60
2021/12/07 00:25:07;;;;;;;;;5.75;2.00;;;;;7.01;100.00;100931.78;5059520;28;45365;-60
2021/12/07 00:27:32;;;;;;;;;3.25;2.00;;;;;7.01;100.00;100942.13;5060296;28;45453;-61
2021/12/07 00:29:57;;;;;;;;;3.50;2.00;;;;;7.00;100.00;100925.72;5060166;28;45306;-60
2021/12/07 00:32:36;;;;;;;;;5.00;1.00;;;;;7.00;100.00;100932.63;5058834;28;45550;-60
2021/12/07 00:37:44;;;;;;;;;1.00;1.00;;;;;6.98;100.00;100948.13;5055438;28;45350;-61
2021/12/07 00:40:13;;;;;;;;;2.00;2.00;;;;;7.00;100.00;100951.56;5060156;28;45236;-60
2021/12/07 00:42:38;;;;;;;;;3.00;3.00;;;;;7.04;99.92;100955.00;5059915;28;45530;-60
2021/12/07 00:45:05;;;;;;;;;4.50;1.75;;;;;7.08;100.00;100955.81;5059695;28;45369;-60
2021/12/07 00:47:32;;;;;;;;;2.00;1.00;;;;;7.09;100.00;100955.81;5059849;28;45814;-60
2021/12/07 00:49:57;;;;;;;;;3.00;1.00;;;;;7.10;99.94;100952.34;5060094;28;45299;-60
2021/12/07 00:52:23;;;;;;;;;2.00;2.00;;;;;7.13;100.00;100951.44;5059628;28;45300;-60
2021/12/07 00:54:48;;;;;;;;;2.75;1.00;;;;;7.19;100.00;100959.13;5058708;28;46019;-60
2021/12/07 00:57:14;;;;;;;;;6.00;2.00;;;;;7.21;100.00;100954.84;5059638;28;45195;-60
2021/12/07 00:59:39;;;;;;;;;3.25;1.75;;;;;7.25;100.00;100961.69;5059668;28;45710;-60
2021/12/07 01:02:05;;;;;;;;;2.25;1.00;;;;;7.27;100.00;100959.94;5059722;28;45555;-61
2021/12/07 01:04:31;;;;;;;;;8.75;5.00;;;;;7.33;100.00;100968.47;5058045;28;47383;-61
2021/12/07 01:25:29;;;;;;;;;3.00;2.00;;;;;7.30;97.50;100955.59;5058540;28;46756;-62
2021/12/07 01:27:59;;;;;;;;;2.75;1.00;;;;;7.25;98.09;100949.63;5059590;28;45731;-62
2021/12/07 01:33:29;;;;;;;;;3.00;1.00;;;;;7.14;97.01;100954.03;5059289;28;45220;-61
2021/12/07 01:39:58;;;;;;;;;4.00;1.00;;;;;7.08;98.08;100966.16;4992304;28;46518;-61
2021/12/07 01:44:43;;;;;;;;;2.00;1.00;;;;;6.98;98.19;100965.38;5058998;28;45353;-61
2021/12/07 02:00:15;;;;;;;;;0.50;0.50;;;;;6.79;96.64;100963.81;5059096;28;45381;-62
2021/12/07 02:02:41;;;;;;;;;0.00;0.00;;;;;6.76;97.98;100966.44;5058923;28;45396;-61
2021/12/07 02:05:08;;;;;;;;;1.50;0.00;;;;;6.72;97.01;100960.44;5059214;28;45293;-61
2021/12/07 02:07:33;;;;;;;;;1.50;0.50;;;;;6.70;97.32;100970.78;5060735;28;46291;-61
2021/12/07 02:10:05;;;;;;;;;0.00;0.00;;;;;6.70;96.96;100972.50;5062667;28;45355;-61
2021/12/07 02:12:41;;;;;;;;;1.25;0.75;;;;;6.72;97.60;100970.75;5062539;28;45306;-61
2021/12/07 02:15:08;;;;;;;;;2.00;0.00;;;;;6.68;96.32;100961.34;5049802;28;45461;-61
2021/12/07 02:17:34;;;;;;;;;2.25;0.00;;;;;6.67;98.37;100963.06;5062349;28;46372;-61
2021/12/07 02:19:59;;;;;;;;;1.00;1.00;;;;;6.67;98.04;100970.81;5062118;28;45697;-60
2021/12/07 02:22:24;;;;;;;;;0.25;0.25;;;;;6.64;97.07;100982.88;5058330;28;45429;-63
2021/12/07 02:24:51;;;;;;;;;1.00;1.00;;;;;6.59;97.03;100972.56;5061767;28;45354;-60
2021/12/07 02:27:16;;;;;;;;;2.00;0.00;;;;;6.58;97.58;100985.50;5061799;28;45409;-60
2021/12/07 02:29:42;;;;;;;;;0.25;0.25;;;;;6.56;96.86;100974.31;5062110;28;45621;-61
2021/12/07 02:32:07;;;;;;;;;2.00;0.00;;;;;6.53;97.49;100979.53;5060640;28;45303;-61
2021/12/07 02:34:35;;;;;;;;;0.00;0.00;;;;;6.50;97.48;100976.97;5062167;28;45313;-61
2021/12/07 02:37:01;;;;;;;;;1.00;1.00;;;;;6.49;97.89;100980.41;5061293;28;46213;-61
2021/12/07 02:39:33;;;;;;;;;0.50;0.50;;;;;6.47;97.07;100974.41;5057666;28;46023;-61
2021/12/07 02:42:00;;;;;;;;;1.00;1.00;;;;;6.46;97.64;100980.44;5049599;28;45320;-62
2021/12/07 02:44:26;;;;;;;;;0.00;0.00;;;;;6.45;98.10;100982.16;5061846;28;45262;-60
2021/12/07 02:46:51;;;;;;;;;0.00;0.00;;;;;6.43;97.44;100983.03;5062019;28;46086;-61
2021/12/07 02:49:19;;;;;;;;;0.00;0.00;;;;;6.42;98.49;100982.19;5061622;28;45293;-60
2021/12/07 02:51:44;;;;;;;;;0.00;0.00;;;;;6.43;98.58;100977.88;5061683;28;45334;-60
2021/12/07 02:54:10;;;;;;;;;0.00;0.00;;;;;6.42;98.08;100986.50;5061721;28;45332;-60
2021/12/07 02:56:35;;;;;;;;;0.75;0.25;;;;;6.42;98.19;100981.34;5061689;28;46876;-60
2021/12/07 02:59:03;;;;;;;;;1.50;0.75;;;;;6.38;97.80;100991.66;5061459;28;45397;-60
2021/12/07 03:01:33;;;;;;;;;0.00;0.00;;;;;6.42;97.76;100992.50;5061847;28;45129;-60
2021/12/07 03:04:07;;;;;;;;;0.50;0.00;;;;;6.43;97.69;100988.22;5061369;28;45311;-60
2021/12/07 03:06:51;;;;;;;;;0.00;0.00;;;;;6.43;97.18;100993.38;5060800;28;45441;-60
2021/12/07 03:26:09;;;;;;;;;2.25;1.00;;;;;6.47;99.32;101014.00;5058254;28;45308;-58
2021/12/07 03:28:40;;;;;;;;;0.00;0.00;;;;;6.51;99.73;101004.50;5058712;28;45360;-58
2021/12/07 03:31:07;;;;;;;;;2.00;2.00;;;;;6.61;99.50;101019.94;5058828;28;45422;-58
2021/12/07 03:33:33;;;;;;;;;4.50;2.00;;;;;6.67;99.86;101011.28;5058418;28;45349;-58
2021/12/07 03:35:59;;;;;;;;;2.75;2.75;;;;;6.66;99.41;101019.88;5058614;28;45437;-61
2021/12/07 03:38:25;;;;;;;;;3.00;1.25;;;;;6.67;98.15;101026.75;5054940;28;45422;-58
2021/12/07 03:40:50;;;;;;;;;1.00;1.00;;;;;6.64;99.00;101024.22;5060955;28;45385;-61
2021/12/07 03:43:16;;;;;;;;;6.00;2.00;;;;;6.64;99.13;101007.00;5060560;28;45304;-59
2021/12/07 03:45:42;;;;;;;;;3.50;1.75;;;;;6.65;99.42;101007.84;5061130;28;45524;-60
2021/12/07 03:48:10;;;;;;;;;0.00;0.00;;;;;6.66;99.47;101002.66;5060677;28;46254;-60
2021/12/07 03:50:36;;;;;;;;;6.75;1.50;;;;;6.68;99.39;101011.25;5060810;28;45412;-60
2021/12/07 03:53:02;;;;;;;;;0.25;0.25;;;;;6.67;99.40;101011.28;5060665;28;45403;-60
2021/12/07 03:55:27;;;;;;;;;1.25;1.25;;;;;6.68;99.08;101008.69;5059257;28;45272;-60
2021/12/07 03:57:53;;;;;;;;;3.75;1.25;;;;;6.69;99.17;101006.94;5060543;28;46289;-59
2021/12/07 04:00:21;;;;;;;;;2.25;1.00;;;;;6.64;99.08;100988.06;5060761;28;45353;-60
2021/12/07 04:02:49;;;;;;;;;0.75;0.75;;;;;6.55;97.69;100990.69;5059151;28;45397;-61
2021/12/07 04:05:18;;;;;;;;;1.00;0.50;;;;;6.50;98.79;100998.47;5060620;28;45408;-60
2021/12/07 04:07:43;;;;;;;;;1.50;1.50;;;;;6.50;98.40;100997.63;5060012;28;46268;-61
2021/12/07 04:10:11;;;;;;;;;2.50;1.00;;;;;6.46;98.82;100985.59;5060748;28;45303;-60
2021/12/07 04:12:37;;;;;;;;;1.25;1.00;;;;;6.42;98.54;100983.91;5060429;28;45299;-61
2021/12/07 04:15:08;;;;;;;;;2.75;1.25;;;;;6.37;98.04;100996.81;5060421;28;45453;-62
2021/12/07 04:17:34;;;;;;;;;5.25;0.00;;;;;6.34;98.77;101008.03;5060149;28;48438;-61
2021/12/07 04:20:00;;;;;;;;;1.25;1.00;;;;;6.34;99.00;101010.59;5060475;28;45499;-61
2021/12/07 04:22:26;;;;;;;;;0.50;0.00;;;;;6.30;98.66;101003.75;5059971;28;45406;-60
2021/12/07 04:24:52;;;;;;;;;0.00;0.00;;;;;6.30;98.95;101014.09;5059803;28;45363;-60
2021/12/07 04:27:18;;;;;;;;;1.75;0.00;;;;;6.29;98.92;101009.78;5059904;28;46196;-60
2021/12/07 04:29:44;;;;;;;;;3.50;1.25;;;;;6.25;99.51;101002.94;5060097;28;45742;-60
2021/12/07 04:32:10;;;;;;;;;3.00;0.00;;;;;6.28;99.69;100997.75;5059927;28;45594;-60
2021/12/07 04:34:35;;;;;;;;;0.75;0.75;;;;;6.25;99.08;100996.91;5060208;28;45327;-60
2021/12/07 04:37:01;;;;;;;;;4.00;1.00;;;;;6.19;98.98;101008.09;5059315;28;46310;-60
2021/12/07 04:39:26;;;;;;;;;3.50;1.00;;;;;6.12;99.51;100990.94;5054284;28;46423;-59
2021/12/07 04:41:52;;;;;;;;;0.00;0.00;;;;;6.11;99.38;100994.41;5060262;28;45521;-60
2021/12/07 04:44:21;;;;;;;;;5.25;1.50;;;;;6.09;99.88;100996.13;5059978;28;45260;-60
2021/12/07 04:47:01;;;;;;;;;1.25;0.25;;;;;6.08;99.83;100994.41;5059770;28;47266;-60
2021/12/07 04:57:41;;;;;;;;;1.25;0.00;;;;;6.01;99.85;100996.19;5059730;28;45287;-59
2021/12/07 05:00:13;;;;;;;;;1.50;1.50;;;;;6.03;99.96;101004.78;5059791;28;45244;-60
2021/12/07 05:02:41;;;;;;;;;2.50;1.00;;;;;6.04;100.00;101011.63;5059685;28;45226;-58
2021/12/07 05:05:08;;;;;;;;;2.75;1.00;;;;;6.03;100.00;100991.88;5059730;28;45149;-60
2021/12/07 05:07:39;;;;;;;;;3.25;1.75;;;;;6.03;100.00;100993.59;5058999;28;46331;-60
2021/12/07 05:12:45;;;;;;;;;3.75;1.75;;;;;5.94;99.79;101001.34;5059639;28;45438;-60
2021/12/07 05:15:23;;;;;;;;;1.00;1.00;;;;;5.91;100.00;100994.50;5059517;28;45384;-59
2021/12/07 05:39:27;;;;;;;;;2.00;2.00;;;;;5.69;100.00;101000.56;5058597;28;45462;-59
2021/12/07 05:41:53;;;;;;;;;4.00;1.50;;;;;5.69;100.00;101008.31;5059580;28;45324;-60
2021/12/07 05:44:19;;;;;;;;;4.50;2.50;;;;;5.67;100.00;101004.88;5062376;28;45150;-58
2021/12/07 05:46:44;;;;;;;;;3.75;1.50;;;;;5.67;100.00;100997.13;5061515;28;45419;-60
2021/12/07 05:49:10;;;;;;;;;6.50;3.75;;;;;5.68;100.00;101001.44;5062067;28;46934;-60
2021/12/07 05:51:35;;;;;;;;;5.50;1.75;;;;;5.67;99.72;101000.56;5042982;28;45291;-58
2021/12/07 05:54:01;;;;;;;;;1.00;1.00;;;;;5.62;100.00;100997.16;5061336;28;45376;-59
2021/12/07 05:56:26;;;;;;;;;5.00;1.50;;;;;5.62;100.00;101004.91;5061232;28;45298;-60
2021/12/07 05:58:51;;;;;;;;;7.25;2.00;;;;;5.63;100.00;101008.34;5043563;28;46184;-60
2021/12/07 06:01:16;;;;;;;;;7.75;4.50;;;;;5.62;100.00;101009.19;5059679;28;45285;-59
2021/12/07 06:03:42;;;;;;;;;2.00;2.00;;;;;5.62;100.00;101009.19;5055892;28;45450;-59
2021/12/07 06:06:07;;;;;;;;;3.25;1.50;;;;;5.60;100.00;101004.00;5060625;28;45229;-60
2021/12/07 06:08:32;;;;;;;;;3.00;2.00;;;;;5.56;100.00;101007.47;5061905;28;46116;-59
2021/12/07 06:10:58;;;;;;;;;5.75;4.00;;;;;5.60;100.00;101009.16;5061175;28;45319;-59
2021/12/07 06:13:24;;;;;;;;;5.25;4.00;;;;;5.64;100.00;101012.63;5043686;28;45322;-60
2021/12/07 06:15:49;;;;;;;;;3.25;0.50;;;;;5.68;100.00;101006.59;5060971;28;45221;-63
2021/12/07 06:18:14;;;;;;;;;11.00;7.25;;;;;5.71;100.00;101007.44;5061743;28;46444;-61
2021/12/07 06:20:41;;;;;;;;;4.75;1.75;;;;;5.74;100.00;101002.25;5060807;28;45367;-61
2021/12/07 06:23:11;;;;;;;;;8.75;2.25;;;;;5.78;100.00;100991.06;5054003;28;45350;-61
2021/12/07 06:25:37;;;;;;;;;8.25;2.50;;;;;5.81;100.00;100982.47;5046640;28;45273;-59
2021/12/07 06:28:03;;;;;;;;;6.75;5.00;;;;;5.82;100.00;100968.72;5060840;28;45598;-60
2021/12/07 06:30:28;;;;;;;;;10.00;5.25;;;;;5.82;100.00;100963.56;5059885;28;45446;-62
2021/12/07 06:32:54;;;;;;;;;19.00;11.00;;;;;5.85;100.00;100962.69;5059862;28;45465;-62
2021/12/07 06:35:19;;;;;;;;;9.50;5.00;;;;;5.88;100.00;100962.66;5060022;28;45257;-63
2021/12/07 06:37:44;;;;;;;;;6.25;5.00;;;;;5.88;100.00;100950.63;5060358;28;45410;-63
2021/12/07 06:40:11;;;;;;;;;5.00;4.50;;;;;5.88;100.00;100942.91;5060473;28;45295;-62
2021/12/07 06:42:38;;;;;;;;;6.00;5.75;;;;;5.91;100.00;100944.63;5061112;28;45335;-64
2021/12/07 06:45:06;;;;;;;;;10.75;7.00;;;;;5.92;100.00;100943.75;5060018;28;45585;-60
2021/12/07 06:47:32;;;;;;;;;5.25;5.25;;;;;5.92;100.00;100944.63;5060850;28;46201;-62
2021/12/07 06:49:57;;;;;;;;;8.75;5.00;;;;;5.92;100.00;100944.63;5060091;28;45268;-61
2021/12/07 06:52:23;;;;;;;;;24.25;19.75;;;;;5.89;100.00;100939.44;5060274;28;45578;-61
2021/12/07 06:54:48;;;;;;;;;11.25;9.00;;;;;5.91;100.00;100953.22;5059365;28;45332;-61
2021/12/07 06:57:13;;;;;;;;;23.75;16.25;;;;;5.91;100.00;100942.91;5060778;28;46062;-61
2021/12/07 06:59:39;;;;;;;;;9.00;7.25;;;;;5.89;100.00;100936.00;5059675;28;45335;-61
2021/12/07 07:02:04;;;;;;;;;0.75;0.00;;;;;5.85;100.00;100922.28;5055631;28;45351;-61
2021/12/07 07:04:29;;;;;;;;;5.75;3.75;;;;;5.85;100.00;100911.97;5059353;28;45257;-61
2021/12/07 07:06:55;;;;;;;;;9.00;6.00;;;;;5.88;100.00;100911.09;5059915;28;45370;-61
2021/12/07 07:09:20;;;;;;;;;8.00;6.25;;;;;5.86;100.00;100903.38;5058571;28;45323;-66
2021/12/07 07:11:45;;;;;;;;;9.50;7.50;;;;;5.86;100.00;100905.94;5059088;28;45493;-61
2021/12/07 07:14:14;;;;;;;;;9.75;9.00;;;;;5.86;100.00;100907.66;5053944;28;45334;-63
2021/12/07 07:16:39;;;;;;;;;11.00;9.00;;;;;5.86;100.00;100907.66;5053275;28;46296;-64
2021/12/07 07:19:04;;;;;;;;;9.25;8.25;;;;;5.84;100.00;100911.97;5059160;28;45339;-62
2021/12/07 07:21:30;;;;;;;;;12.25;9.00;;;;;5.83;100.00;100899.94;5052761;28;45515;-64
2021/12/07 07:23:55;;;;;;;;;10.25;6.50;;;;;5.83;100.00;100902.53;5036759;28;45334;-62
2021/12/07 07:26:21;;;;;;;;;11.25;10.00;;;;;5.83;100.00;100899.94;5051776;28;45293;-61
2021/12/07 07:28:46;;;;;;;;;11.50;11.00;;;;;5.81;100.00;100894.81;5059441;28;45237;-62
2021/12/07 07:31:12;;;;;;;;;14.75;10.00;;;;;5.83;100.00;100887.06;5060766;28;45166;-61
2021/12/07 07:33:38;;;;;;;;;12.25;9.25;;;;;5.82;100.00;100881.03;5056880;28;45596;-61
2021/12/07 07:36:05;;;;;;;;;17.75;10.25;;;;;5.83;100.00;100876.75;5059587;28;46424;-61
2021/12/07 07:38:32;;;;;;;;;8.25;5.75;;;;;5.82;100.00;100864.72;5058631;28;45487;-61
2021/12/07 07:40:57;;;;;;;;;16.25;10.25;;;;;5.81;100.00;100863.84;5059129;28;45388;-60
2021/12/07 07:43:24;;;;;;;;;15.75;10.50;;;;;5.80;100.00;100856.97;5059461;28;45415;-60
2021/12/07 07:45:52;;;;;;;;;18.25;12.75;;;;;5.76;100.00;100845.81;5060009;28;46340;-61
2021/12/07 07:48:20;;;;;;;;;15.00;11.75;;;;;5.76;100.00;100842.38;5059442;28;45794;-60
2021/12/07 07:50:46;;;;;;;;;14.75;11.50;;;;;5.75;100.00;100845.81;5059300;28;45319;-60
2021/12/07 07:53:12;;;;;;;;;13.25;12.50;;;;;5.75;100.00;100845.81;5049365;28;45379;-60
2021/12/07 07:55:39;;;;;;;;;16.75;13.50;;;;;5.77;100.00;100834.63;5059388;28;46184;-61
2021/12/07 07:58:05;;;;;;;;;17.00;15.25;;;;;5.81;100.00;100845.81;5059685;28;45857;-61
2021/12/07 08:00:32;;;;;;;;;15.75;14.00;;;;;5.85;100.00;100847.50;5041442;28;45347;-61
2021/12/07 08:02:57;;;;;;;;;21.25;17.00;;;;;5.89;100.00;100832.84;5049499;28;45222;-61
2021/12/07 08:05:23;;;;;;;;;24.50;19.25;;;;;5.95;100.00;100835.41;5055275;28;45988;-60
2021/12/07 08:07:48;;;;;;;;;18.25;18.00;;;;;5.96;100.00;100831.97;5060040;28;45490;-61
2021/12/07 08:10:21;;;;;;;;;24.75;17.75;;;;;5.94;100.00;100828.53;5059529;28;45774;-61
2021/12/07 08:12:47;;;;;;;;;24.75;21.25;;;;;5.95;100.00;100822.50;5059709;28;45441;-61
2021/12/07 08:15:12;;;;;;;;;20.50;14.00;;;;;5.97;100.00;100818.19;5046391;28;46371;-61
2021/12/07 08:17:38;;;;;;;;;28.75;21.00;;;;;5.98;100.00;100815.59;5059912;28;45377;-60
2021/12/07 08:20:04;;;;;;;;;22.75;19.75;;;;;5.99;100.00;100806.13;5059387;28;45339;-60
2021/12/07 08:22:30;;;;;;;;;25.25;20.50;;;;;6.00;100.00;100810.44;5052598;28;45410;-60
2021/12/07 08:24:56;;;;;;;;;23.25;21.00;;;;;5.99;100.00;100800.97;5045720;28;46003;-62
2021/12/07 08:27:22;;;;;;;;;31.00;18.50;;;;;5.95;100.00;100788.97;5058492;28;45272;-62
2021/12/07 08:29:48;;;;;;;;;28.50;21.75;;;;;5.98;100.00;100794.09;5059891;28;45250;-61
2021/12/07 08:32:13;;;;;;;;;27.50;19.00;;;;;5.99;100.00;100785.50;5057025;28;45477;-61
2021/12/07 08:34:39;;;;;;;;;23.50;21.25;;;;;5.99;100.00;100778.63;5059074;28;45208;-61
2021/12/07 08:37:04;;;;;;;;;32.00;22.75;;;;;6.05;100.00;100780.31;5058162;28;45271;-60
2021/12/07 08:39:30;;;;;;;;;36.50;24.00;;;;;6.12;100.00;100779.38;5058518;28;45253;-60
2021/12/07 08:41:55;;;;;;;;;24.75;22.00;;;;;6.14;100.00;100780.22;5058049;28;45235;-61
2021/12/07 08:44:22;;;;;;;;;33.50;22.50;;;;;6.20;100.00;100787.03;5058791;28;47508;-60
2021/12/07 08:46:47;;;;;;;;;31.75;25.25;;;;;6.24;100.00;100781.88;5058553;28;45195;-60
2021/12/07 08:49:15;;;;;;;;;30.50;21.00;;;;;6.30;100.00;100783.53;5059476;28;45263;-60
2021/12/07 08:51:42;;;;;;;;;25.75;17.50;;;;;6.18;100.00;100778.47;5058404;28;45517;-60
2021/12/07 08:59:44;;;;;;;;;17.50;16.75;;;;;5.92;100.00;100742.59;5058391;28;45815;-60
2021/12/07 09:02:12;;;;;;;;;21.50;16.75;;;;;6.00;100.00;100751.09;5053027;28;45412;-60
2021/12/07 09:04:38;;;;;;;;;32.00;25.25;;;;;6.07;100.00;100752.78;5046366;28;45602;-62
2021/12/07 09:07:05;;;;;;;;;25.50;19.25;;;;;6.12;100.00;100742.41;5057297;28;45163;-62
2021/12/07 09:09:32;;;;;;;;;26.50;22.25;;;;;6.15;100.00;100716.56;5059101;28;44800;-61
2021/12/07 09:11:57;;;;;;;;;34.00;21.25;;;;;6.13;100.00;100714.00;5058261;28;45221;-66
2021/12/07 09:14:23;;;;;;;;;26.50;22.50;;;;;6.14;100.00;100697.66;5051648;28;45336;-62
2021/12/07 09:16:49;;;;;;;;;29.50;26.75;;;;;6.15;100.00;100696.78;5039216;28;45351;-60
2021/12/07 09:19:15;;;;;;;;;25.75;20.00;;;;;6.15;100.00;100701.09;5059270;28;45337;-69
2021/12/07 09:21:41;;;;;;;;;35.00;29.25;;;;;6.23;100.00;100714.78;5051164;28;45557;-68
2021/12/07 09:24:07;;;;;;;;;28.00;21.00;;;;;6.21;100.00;100691.59;5052038;28;47183;-65
2021/12/07 09:26:33;;;;;;;;;23.00;19.00;;;;;6.22;100.00;100685.56;5051768;28;45602;-64
2021/12/07 09:28:58;;;;;;;;;20.75;16.25;;;;;6.22;100.00;100664.91;5058051;28;45242;-64
2021/12/07 09:31:25;;;;;;;;;20.25;18.75;;;;;6.21;100.00;100658.03;5057870;28;45248;-65
2021/12/07 09:33:51;;;;;;;;;26.00;19.50;;;;;6.19;100.00;100674.38;5057915;28;45343;-65
2021/12/07 09:36:17;;;;;;;;;15.50;14.50;;;;;6.17;100.00;100669.25;5058613;28;45288;-64
2021/12/07 09:38:42;;;;;;;;;22.25;16.75;;;;;6.12;100.00;100685.66;5057804;28;45249;-63
2021/12/07 09:41:11;;;;;;;;;23.25;20.00;;;;;6.08;100.00;100692.56;5058743;28;45595;-62
2021/12/07 09:43:36;;;;;;;;;25.50;21.50;;;;;6.03;100.00;100691.78;5058575;28;46799;-59
2021/12/07 09:46:06;;;;;;;;;27.25;26.00;;;;;5.99;100.00;100685.75;5058068;28;45297;-59
2021/12/07 09:48:32;;;;;;;;;30.75;23.25;;;;;5.95;100.00;100672.91;5058768;28;45437;-59
2021/12/07 09:50:58;;;;;;;;;32.00;20.50;;;;;5.96;100.00;100683.22;5057277;28;45528;-60
2021/12/07 09:53:25;;;;;;;;;29.75;23.25;;;;;5.99;100.00;100674.59;5058726;28;45320;-67
2021/12/07 09:55:52;;;;;;;;;23.50;18.00;;;;;6.05;100.00;100670.25;5039690;28;45297;-75
2021/12/07 09:58:18;;;;;;;;;17.25;16.50;;;;;6.13;100.00;100665.00;5040352;28;45477;-64
2021/12/07 10:00:45;;;;;;;;;18.00;13.00;;;;;6.18;100.00;100654.63;5057464;28;45431;-65
2021/12/07 10:03:12;;;;;;;;;11.25;11.25;;;;;6.24;100.00;100659.72;5052560;28;46386;-64
2021/12/07 10:05:40;;;;;;;;;14.00;10.50;;;;;6.18;100.00;100672.69;5057114;28;45962;-63
2021/12/07 10:08:06;;;;;;;;;12.50;10.00;;;;;6.12;100.00;100681.34;5058483;28;45277;-63
2021/12/07 10:10:55;;;;;;;;;19.25;14.25;;;;;6.11;100.00;100677.06;5057725;28;45475;-65
2021/12/07 10:13:22;;;;;;;;;23.75;15.25;;;;;6.12;100.00;100677.91;5057927;28;46566;-62
2021/12/07 10:15:49;;;;;;;;;15.50;13.25;;;;;6.16;100.00;100664.09;5044574;28;45275;-62
2021/12/07 10:18:17;;;;;;;;;13.00;9.75;;;;;6.25;100.00;100653.69;5058072;28;45330;-62
2021/12/07 10:20:52;;;;;;;;;14.75;12.75;;;;;6.30;100.00;100642.44;5056671;28;45598;-67
2021/12/07 10:23:23;;;;;;;;;14.50;11.50;;;;;6.33;100.00;100628.63;5054452;28;45422;-60
2021/12/07 10:26:00;;;;;;;;;14.00;12.50;;;;;6.34;100.00;100613.13;5044309;28;45912;-61
2021/12/07 10:28:32;;;;;;;;;12.25;12.25;;;;;6.42;100.00;100610.47;5058698;28;45358;-62
2021/12/07 10:31:10;;;;;;;;;14.00;12.75;;;;;6.48;100.00;100599.22;5061218;28;45518;-63
2021/12/07 10:33:41;;;;;;;;;18.50;15.75;;;;;6.51;100.00;100589.69;5059002;28;46563;-63
2021/12/07 10:36:17;;;;;;;;;14.00;13.75;;;;;6.54;100.00;100574.16;5061010;28;45340;-63
2021/12/07 10:39:06;;;;;;;;;17.25;14.75;;;;;6.59;100.00;100576.66;5048636;28;45208;-62
2021/12/07 10:41:33;;;;;;;;;20.75;17.75;;;;;6.58;100.00;100569.81;5061540;28;45411;-62
2021/12/07 10:44:09;;;;;;;;;19.75;15.25;;;;;6.54;100.00;100547.50;5061418;28;46252;-62
2021/12/07 10:46:40;;;;;;;;;23.00;18.75;;;;;6.53;100.00;100543.22;5061544;28;45239;-62
2021/12/07 10:49:25;;;;;;;;;18.00;13.50;;;;;6.55;100.00;100525.97;5062013;28;45346;-61
2021/12/07 10:52:00;;;;;;;;;18.75;15.25;;;;;6.56;100.00;100525.09;5061450;28;45433;-62
2021/12/07 10:54:28;;;;;;;;;16.50;14.25;;;;;6.63;100.00;100508.66;5061169;28;46402;-62
2021/12/07 10:56:53;;;;;;;;;17.75;15.50;;;;;6.67;100.00;100503.41;5061414;28;45622;-61
2021/12/07 10:59:19;;;;;;;;;20.75;14.00;;;;;6.71;100.00;100493.88;5060969;28;45356;-61
2021/12/07 11:01:48;;;;;;;;;18.50;15.00;;;;;6.78;100.00;100479.97;5061130;28;45145;-62
2021/12/07 11:04:22;;;;;;;;;17.00;14.50;;;;;6.81;100.00;100477.38;5060905;28;46349;-61
2021/12/07 11:07:26;;;;;;;;;19.25;14.75;;;;;6.85;100.00;100462.69;5060615;28;45798;-62
2021/12/07 11:10:16;;;;;;;;;22.25;20.50;;;;;6.95;100.00;100462.47;5051733;28;45441;-62
2021/12/07 11:13:00;;;;;;;;;21.00;15.50;;;;;7.05;100.00;100437.34;5056715;28;45411;-63
2021/12/07 11:15:28;;;;;;;;;22.50;18.75;;;;;7.12;100.00;100423.44;5057783;27;46526;-60
2021/12/07 11:18:23;;;;;;;;;25.00;20.50;;;;;7.20;100.00;100416.38;5055731;28;45899;-61
2021/12/07 11:20:49;;;;;;;;;25.50;18.50;;;;;7.28;100.00;100383.50;5051045;28;45515;-60
2021/12/07 11:23:22;;;;;;;;;20.00;18.50;;;;;7.32;100.00;100385.13;5056024;28;45425;-63
2021/12/07 11:31:39;;;;;;;;;22.00;14.75;;;;;7.45;100.00;100343.53;5047545;28;45497;-65
2021/12/07 11:34:04;;;;;;;;;28.00;16.25;;;;;7.45;100.00;100331.47;5060707;28;45227;-60
2021/12/07 11:36:32;;;;;;;;;24.00;14.67;;;;;7.49;100.00;100327.91;5059885;28;45394;-64
2021/12/07 11:38:59;;;;;;;;;15.75;11.00;;;;;7.54;100.00;100328.66;5058579;28;45780;-59
2021/12/07 11:41:31;;;;;;;;;18.25;14.75;;;;;7.54;100.00;100327.81;5058832;28;45341;-60
2021/12/07 11:44:00;;;;;;;;;12.75;11.25;;;;;7.59;100.00;100300.09;5059753;28;45324;-62
2021/12/07 11:46:29;;;;;;;;;14.75;12.75;;;;;7.56;100.00;100285.53;5059450;28;45497;-60
2021/12/07 11:49:09;;;;;;;;;6.00;2.75;;;;;7.66;100.00;100306.03;5041741;28;45287;-60
2021/12/07 11:51:35;;;;;;;;;16.25;10.75;;;;;7.70;100.00;100294.72;5058641;28;45321;-61
2021/12/07 11:54:00;;;;;;;;;13.75;10.50;;;;;7.77;100.00;100273.84;5059632;28;45347;-60
2021/12/07 11:56:27;;;;;;;;;10.25;9.25;;;;;7.83;100.00;100280.63;5059597;28;45971;-60
2021/12/07 11:58:52;;;;;;;;;12.00;11.25;;;;;7.82;99.78;100266.00;5059204;28;45314;-70
2021/12/07 12:01:19;;;;;;;;;14.25;9.75;;;;;7.83;100.00;100249.56;5059263;28;45373;-62
2021/12/07 12:03:44;;;;;;;;;11.25;11.25;;;;;7.87;100.00;100243.44;5053453;28;45234;-61
2021/12/07 12:06:09;;;;;;;;;17.25;13.50;;;;;7.86;100.00;100215.88;5059028;28;47028;-60
2021/12/07 12:08:35;;;;;;;;;19.75;12.00;;;;;7.97;100.00;100216.44;5059785;28;45317;-61
2021/12/07 12:11:07;;;;;;;;;11.00;10.75;;;;;7.99;99.79;100204.31;5059047;28;45352;-61
2021/12/07 12:13:59;;;;;;;;;12.50;8.50;;;;;8.01;99.87;100218.09;5058710;28;45392;-67
2021/12/07 12:16:40;;;;;;;;;10.75;9.50;;;;;8.06;100.00;100207.59;5050842;28;45431;-62
2021/12/07 12:19:12;;;;;;;;;15.50;11.75;;;;;8.07;100.00;100206.72;5059146;28;45534;-64
2021/12/07 12:21:44;;;;;;;;;14.00;11.50;;;;;8.07;100.00;100194.63;5052031;28;45335;-61
2021/12/07 12:24:35;;;;;;;;;7.00;5.25;;;;;8.09;99.56;100186.81;5052441;28;45358;-62
2021/12/07 12:27:21;;;;;;;;;10.00;8.50;;;;;8.08;99.95;100179.94;5055678;28;45490;-60
2021/12/07 12:29:50;;;;;;;;;15.25;12.25;;;;;8.09;99.54;100166.13;5059544;28;45162;-61
2021/12/07 12:32:27;;;;;;;;;11.75;9.25;;;;;8.09;99.82;100140.25;5057364;28;45330;-62
2021/12/07 12:34:55;;;;;;;;;12.25;8.00;;;;;8.10;99.80;100144.53;5058901;28;45320;-63
2021/12/07 12:37:27;;;;;;;;;13.00;8.50;;;;;8.13;99.32;100134.94;5059125;28;46331;-62
2021/12/07 12:40:05;;;;;;;;;7.00;6.25;;;;;8.14;99.48;100120.25;5058517;28;45379;-60
2021/12/07 12:42:42;;;;;;;;;9.50;6.50;;;;;8.14;98.78;100113.34;5059475;28;45415;-61
2021/12/07 12:45:17;;;;;;;;;13.50;7.00;;;;;8.09;98.93;100097.09;5058610;28;45301;-63
2021/12/07 12:47:43;;;;;;;;;14.00;9.75;;;;;8.09;99.30;100078.97;5058562;28;46429;-61
2021/12/07 12:50:19;;;;;;;;;9.25;7.00;;;;;8.13;99.21;100085.75;5059246;28;45513;-62
2021/12/07 12:52:59;;;;;;;;;10.50;8.50;;;;;8.17;99.29;100061.47;5058575;28;45371;-62
2021/12/07 12:55:37;;;;;;;;;10.50;8.00;;;;;8.22;98.67;100048.44;5059387;28;45363;-61
2021/12/07 12:58:06;;;;;;;;;9.75;5.25;;;;;8.27;99.14;100041.38;5058158;28;45306;-61
2021/12/07 13:00:59;;;;;;;;;10.75;7.00;;;;;8.31;99.31;100026.59;5059224;28;45758;-62
2021/12/07 13:03:36;;;;;;;;;12.25;9.25;;;;;8.30;98.78;100028.34;5045535;28;45467;-62
2021/12/07 13:06:02;;;;;;;;;9.25;2.00;;;;;8.30;98.22;100032.66;5058074;28;45336;-62
2021/12/07 13:08:28;;;;;;;;;6.25;3.50;;;;;8.30;98.64;100017.13;5059037;28;45453;-62
2021/12/07 13:10:59;;;;;;;;;8.00;5.50;;;;;8.34;98.12;100009.25;5058350;28;45437;-63